createdAt,value
2023-03-26T00:01:55.056Z,56.58
2023-03-26T00:04:25.452Z,56.22
2023-03-26T00:06:54.157Z,56.73
2023-03-26T00:09:23.338Z,56.84
2023-03-26T00:11:51.393Z,56.94
2023-03-26T00:14:19.280Z,56.58
2023-03-26T00:16:49.334Z,56.71
2023-03-26T00:19:17.346Z,56.82
2023-03-26T00:21:45.349Z,56.74
2023-03-26T00:24:16.150Z,56.58
2023-03-26T00:26:48.524Z,56.65
2023-03-26T00:29:16.877Z,56.37
2023-03-26T00:31:46.581Z,56.93
2023-03-26T00:34:15.846Z,57.02
2023-03-26T00:36:43.991Z,57.14
2023-03-26T00:39:11.960Z,57.38
2023-03-26T00:41:43.284Z,56.52
2023-03-26T00:44:13.927Z,56.91
2023-03-26T00:46:42.704Z,56.57
2023-03-26T00:49:14.759Z,57.06
2023-03-26T00:51:43.332Z,57.28
2023-03-26T00:54:11.918Z,57.65
2023-03-26T00:56:39.851Z,57.48
2023-03-26T00:59:09.250Z,57.43
2023-03-26T01:01:39.695Z,57.84
2023-03-26T01:04:30.598Z,58.29
2023-03-26T01:07:02.661Z,58.78
2023-03-26T01:09:35.558Z,59.04
2023-03-26T01:12:06.702Z,59.51
2023-03-26T01:14:34.739Z,58.85
2023-03-26T01:17:07.092Z,59.29
2023-03-26T01:19:44.675Z,59.15
2023-03-26T01:22:17.599Z,59.87
2023-03-26T01:24:53.039Z,60.09
2023-03-26T01:27:28.878Z,60.10
2023-03-26T01:30:03.866Z,60.20
2023-03-26T01:32:44.837Z,60.18
2023-03-26T01:35:25.521Z,60.40
2023-03-26T01:38:10.921Z,59.59
2023-03-26T01:40:47.041Z,59.36
2023-03-26T01:43:25.543Z,59.53
2023-03-26T01:45:54.860Z,59.59
2023-03-26T01:48:30.593Z,59.69
2023-03-26T01:50:58.837Z,59.18
2023-03-26T01:53:27.325Z,59.33
2023-03-26T01:56:06.906Z,59.14
2023-03-26T01:58:42.114Z,58.87
2023-03-26T02:01:27.864Z,58.80
2023-03-26T02:04:00.658Z,58.95
2023-03-26T02:06:38.167Z,58.16
2023-03-26T02:09:09.059Z,58.09
2023-03-26T02:11:41.594Z,57.93
2023-03-26T02:14:10.946Z,57.96
2023-03-26T02:16:39.286Z,58.33
2023-03-26T02:19:15.987Z,58.33
2023-03-26T02:21:45.916Z,57.40
2023-03-26T02:24:13.961Z,57.83
2023-03-26T02:26:43.211Z,58.16
2023-03-26T02:29:13.290Z,57.54
2023-03-26T02:31:43.964Z,57.95
2023-03-26T02:34:11.882Z,58.09
2023-03-26T02:36:43.825Z,58.19
2023-03-26T02:39:14.270Z,58.36
2023-03-26T02:41:46.787Z,58.19
2023-03-26T02:44:14.737Z,58.76
2023-03-26T02:47:00.948Z,58.33
2023-03-26T02:49:48.790Z,58.21
2023-03-26T02:52:24.272Z,58.24
2023-03-26T02:54:54.577Z,58.07
2023-03-26T02:57:26.404Z,58.35
2023-03-26T03:00:00.092Z,58.33
2023-03-26T03:02:38.334Z,58.04
2023-03-26T03:05:27.080Z,57.85
2023-03-26T03:08:08.899Z,58.03
2023-03-26T03:10:39.876Z,58.07
2023-03-26T03:13:14.970Z,58.50
2023-03-26T03:15:42.860Z,58.53
2023-03-26T03:18:10.808Z,58.61
2023-03-26T03:20:38.853Z,58.54
2023-03-26T03:23:06.762Z,58.71
2023-03-26T03:25:35.133Z,58.72
2023-03-26T03:28:03.282Z,59.19
2023-03-26T03:30:32.652Z,59.37
2023-03-26T03:33:13.080Z,59.50
2023-03-26T03:35:41.671Z,59.33
2023-03-26T03:38:09.632Z,59.47
2023-03-26T03:40:46.862Z,60.10
2023-03-26T03:43:15.376Z,60.16
2023-03-26T03:45:58.157Z,59.90
2023-03-26T03:48:39.049Z,59.95
2023-03-26T03:51:08.745Z,60.17
2023-03-26T03:53:57.526Z,60.61
2023-03-26T03:56:48.977Z,60.53
2023-03-26T03:59:37.346Z,60.44
2023-03-26T04:02:10.900Z,60.29
2023-03-26T04:04:46.356Z,60.50
2023-03-26T04:07:16.834Z,61.16
2023-03-26T04:10:15.675Z,61.44
2023-03-26T04:13:02.190Z,61.28
2023-03-26T04:16:02.860Z,61.29
2023-03-26T04:18:32.454Z,61.21
2023-03-26T04:21:07.397Z,61.53
2023-03-26T04:23:36.471Z,61.94
2023-03-26T04:26:17.019Z,61.38
2023-03-26T04:29:12.833Z,61.41
2023-03-26T04:31:43.133Z,61.88
2023-03-26T04:34:24.084Z,61.03
2023-03-26T04:37:26.609Z,61.31
2023-03-26T04:40:10.330Z,61.46
2023-03-26T04:42:54.574Z,61.01
2023-03-26T04:45:34.999Z,61.20
2023-03-26T04:48:02.933Z,61.45
2023-03-26T04:50:32.362Z,61.51
2023-03-26T04:53:00.903Z,61.65
2023-03-26T04:55:57.062Z,61.02
2023-03-26T04:58:45.336Z,61.50
2023-03-26T05:01:13.923Z,61.85
2023-03-26T05:03:45.680Z,61.75
2023-03-26T05:06:18.739Z,62.32
2023-03-26T05:08:47.055Z,61.83
2023-03-26T05:11:30.172Z,61.68
2023-03-26T05:13:58.130Z,61.98
2023-03-26T05:16:26.904Z,61.48
2023-03-26T05:18:59.236Z,61.42
2023-03-26T05:21:33.692Z,61.33
2023-03-26T05:24:02.280Z,61.15
2023-03-26T05:26:30.665Z,61.40
2023-03-26T05:28:59.545Z,60.83
2023-03-26T05:31:33.524Z,61.06
2023-03-26T05:34:03.306Z,61.15
2023-03-26T05:36:31.396Z,60.70
2023-03-26T05:39:15.881Z,60.73
2023-03-26T05:42:09.738Z,60.40
2023-03-26T05:44:53.586Z,60.28
2023-03-26T05:47:27.387Z,60.30
2023-03-26T05:49:55.454Z,60.78
2023-03-26T05:52:23.423Z,61.00
2023-03-26T05:55:11.836Z,61.36
2023-03-26T05:58:01.098Z,60.87
2023-03-26T06:00:48.584Z,61.12
2023-03-26T06:03:23.348Z,61.75
2023-03-26T06:06:16.805Z,61.72
2023-03-26T06:09:01.988Z,61.74
2023-03-26T06:11:33.590Z,61.87
2023-03-26T06:14:03.916Z,62.49
2023-03-26T06:16:33.026Z,62.53
2023-03-26T06:19:13.394Z,61.96
2023-03-26T06:22:07.795Z,62.04
2023-03-26T06:24:58.465Z,62.32
2023-03-26T06:27:43.553Z,62.28
2023-03-26T06:30:30.038Z,62.35
2023-03-26T06:33:06.572Z,62.21
2023-03-26T06:35:42.837Z,62.34
2023-03-26T06:38:10.762Z,62.44
2023-03-26T06:40:38.850Z,62.38
2023-03-26T06:43:39.066Z,62.32
2023-03-26T06:46:25.761Z,62.48
2023-03-26T06:48:53.604Z,62.27
2023-03-26T06:51:41.167Z,61.94
2023-03-26T06:54:09.155Z,61.46
2023-03-26T06:56:55.215Z,61.84
2023-03-26T06:59:39.372Z,61.71
2023-03-26T07:02:26.447Z,61.17
2023-03-26T07:05:13.829Z,61.53
2023-03-26T07:07:59.996Z,61.04
2023-03-26T07:10:51.061Z,61.20
2023-03-26T07:13:44.976Z,60.84
2023-03-26T07:16:32.942Z,61.23
2023-03-26T07:19:19.564Z,61.02
2023-03-26T07:21:49.045Z,60.67
2023-03-26T07:24:55.705Z,60.59
2023-03-26T07:27:53.657Z,60.67
2023-03-26T07:30:39.512Z,60.21
2023-03-26T07:33:30.507Z,59.27
2023-03-26T07:36:25.599Z,59.05
2023-03-26T07:39:30.424Z,58.59
2023-03-26T07:42:32.490Z,58.70
2023-03-26T07:45:35.191Z,58.71
2023-03-26T07:48:27.317Z,58.21
2023-03-26T07:51:18.803Z,58.04
2023-03-26T07:53:52.902Z,57.49
2023-03-26T07:56:54.094Z,57.03
2023-03-26T07:59:51.807Z,56.86
2023-03-26T08:03:16.824Z,57.32
2023-03-26T08:06:16.466Z,56.39
2023-03-26T08:09:29.227Z,56.67
2023-03-26T08:12:25.593Z,57.25
2023-03-26T08:15:01.918Z,56.75
2023-03-26T08:17:38.034Z,56.01
2023-03-26T08:20:17.193Z,56.49
2023-03-26T08:22:51.892Z,56.45
2023-03-26T08:25:29.551Z,56.00
2023-03-26T08:28:10.625Z,54.97
2023-03-26T08:30:38.850Z,55.04
2023-03-26T08:33:13.904Z,53.96
2023-03-26T08:35:42.797Z,52.73
2023-03-26T08:38:14.311Z,51.99
2023-03-26T08:41:06.035Z,52.50
2023-03-26T08:43:59.554Z,53.15
2023-03-26T08:46:58.318Z,52.88
2023-03-26T08:49:56.739Z,54.00
2023-03-26T08:53:03.372Z,53.57
2023-03-26T08:55:53.544Z,53.99
2023-03-26T08:58:55.284Z,55.22
2023-03-26T09:01:55.432Z,55.85
2023-03-26T09:05:00.032Z,55.04
2023-03-26T09:07:48.212Z,55.52
2023-03-26T09:10:51.712Z,55.42
2023-03-26T09:13:56.119Z,54.13
2023-03-26T09:16:56.012Z,54.13
2023-03-26T09:19:53.037Z,53.99
2023-03-26T09:23:03.289Z,54.56
2023-03-26T09:26:08.413Z,54.75
2023-03-26T09:29:36.513Z,54.06
2023-03-26T09:32:43.944Z,53.45
2023-03-26T09:35:16.182Z,52.75
2023-03-26T09:38:12.020Z,52.31
2023-03-26T09:40:52.851Z,52.93
2023-03-26T09:43:41.915Z,52.66
2023-03-26T09:46:28.111Z,51.80
2023-03-26T09:49:17.287Z,51.10
2023-03-26T09:52:22.200Z,50.86
2023-03-26T09:55:08.257Z,49.87
2023-03-26T09:57:58.448Z,49.01
2023-03-26T10:00:37.402Z,48.84
2023-03-26T10:03:33.272Z,48.24
2023-03-26T10:06:13.879Z,48.14
2023-03-26T10:08:59.516Z,48.32
2023-03-26T10:11:40.461Z,47.67
2023-03-26T10:14:20.364Z,47.66
2023-03-26T10:17:01.462Z,46.98
2023-03-26T10:19:46.484Z,46.55
2023-03-26T10:22:29.467Z,45.66
2023-03-26T10:25:16.590Z,45.74
2023-03-26T10:27:53.834Z,45.24
2023-03-26T10:30:46.775Z,45.10
2023-03-26T10:33:25.929Z,45.62
2023-03-26T10:36:11.832Z,45.29
2023-03-26T10:39:00.737Z,45.58
2023-03-26T10:41:40.649Z,45.79
2023-03-26T10:44:43.430Z,45.03
2023-03-26T10:47:20.852Z,44.76
2023-03-26T10:50:03.890Z,45.18
2023-03-26T10:52:38.954Z,45.15
2023-03-26T10:55:14.322Z,45.43
2023-03-26T10:57:46.919Z,45.60
2023-03-26T11:00:18.138Z,45.34
2023-03-26T11:03:00.013Z,45.83
2023-03-26T11:05:45.586Z,46.05
2023-03-26T11:08:31.371Z,46.20
2023-03-26T11:11:06.681Z,45.85
2023-03-26T11:13:47.174Z,44.82
2023-03-26T11:16:24.667Z,44.66
2023-03-26T11:18:59.839Z,45.25
2023-03-26T11:21:34.698Z,43.88
2023-03-26T11:24:26.214Z,44.02
2023-03-26T11:26:57.766Z,44.49
2023-03-26T11:29:52.629Z,45.21
2023-03-26T11:32:24.883Z,44.91
2023-03-26T11:35:02.332Z,44.66
2023-03-26T11:37:34.021Z,44.39
2023-03-26T11:40:08.673Z,43.98
2023-03-26T11:42:37.211Z,42.99
2023-03-26T11:45:09.154Z,43.03
2023-03-26T11:47:45.627Z,41.54
2023-03-26T11:50:20.665Z,41.07
2023-03-26T11:52:52.263Z,41.08
2023-03-26T11:55:23.778Z,41.20
2023-03-26T11:57:57.154Z,40.86
2023-03-26T12:00:27.523Z,40.78
2023-03-26T12:02:58.550Z,40.07
2023-03-26T12:05:33.427Z,40.14
2023-03-26T12:08:03.662Z,40.00
2023-03-26T12:10:37.752Z,40.10
2023-03-26T12:13:26.571Z,39.20
2023-03-26T12:15:59.637Z,39.17
2023-03-26T12:18:29.350Z,39.32
2023-03-26T12:21:05.622Z,39.34
2023-03-26T12:23:45.702Z,39.59
2023-03-26T12:26:20.774Z,38.91
2023-03-26T12:28:51.214Z,39.27
2023-03-26T12:31:20.462Z,39.56
2023-03-26T12:34:07.527Z,39.81
2023-03-26T12:36:36.156Z,39.98
2023-03-26T12:40:08.660Z,40.17
2023-03-26T12:44:46.259Z,40.81
2023-03-26T12:45:23.905Z,41.08
2023-03-26T12:47:59.263Z,40.93
2023-03-26T12:50:43.251Z,40.70
2023-03-26T12:53:39.612Z,40.79
2023-03-26T12:56:19.686Z,41.09
2023-03-26T12:59:05.750Z,41.30
2023-03-26T13:01:50.377Z,40.95
2023-03-26T13:04:38.933Z,39.97
2023-03-26T13:07:17.960Z,39.98
2023-03-26T13:09:57.707Z,40.21
2023-03-26T13:12:35.541Z,39.44
2023-03-26T13:15:22.048Z,38.88
2023-03-26T13:18:02.289Z,39.01
2023-03-26T13:20:37.275Z,38.54
2023-03-26T13:23:18.111Z,37.83
2023-03-26T13:25:53.777Z,37.55
2023-03-26T13:28:32.844Z,37.56
2023-03-26T13:31:11.802Z,36.83
2023-03-26T13:33:49.823Z,37.18
2023-03-26T13:36:26.992Z,37.25
2023-03-26T13:39:12.697Z,37.13
2023-03-26T13:41:53.599Z,37.22
2023-03-26T13:44:32.283Z,37.56
2023-03-26T13:47:06.224Z,38.08
2023-03-26T13:49:38.784Z,37.60
2023-03-26T13:52:11.492Z,38.32
2023-03-26T13:54:45.380Z,38.65
2023-03-26T13:57:20.168Z,39.22
2023-03-26T13:59:53.942Z,39.46
2023-03-26T14:02:28.763Z,40.08
2023-03-26T14:05:02.055Z,39.99
2023-03-26T14:07:35.887Z,39.98
2023-03-26T14:10:09.759Z,40.27
2023-03-26T14:12:51.249Z,40.83
2023-03-26T14:15:24.751Z,40.71
2023-03-26T14:18:02.664Z,40.91
2023-03-26T14:20:53.240Z,40.67
2023-03-26T14:23:39.946Z,40.53
2023-03-26T14:26:19.559Z,40.89
2023-03-26T14:29:18.673Z,40.72
2023-03-26T14:31:59.377Z,40.09
2023-03-26T14:34:59.845Z,39.96
2023-03-26T14:38:01.728Z,39.60
2023-03-26T14:40:37.531Z,39.23
2023-03-26T14:43:28.553Z,39.52
2023-03-26T14:46:12.518Z,39.37
2023-03-26T14:49:12.381Z,39.69
2023-03-26T14:52:02.053Z,39.87
2023-03-26T14:54:33.447Z,39.26
2023-03-26T14:57:22.605Z,39.85
2023-03-26T15:00:28.667Z,40.02
2023-03-26T15:03:38.617Z,39.63
2023-03-26T15:06:27.173Z,39.89
2023-03-26T15:09:31.405Z,40.27
2023-03-26T15:12:12.734Z,40.84
2023-03-26T15:15:23.529Z,40.82
2023-03-26T15:18:24.659Z,41.03
2023-03-26T15:21:28.532Z,40.89
2023-03-26T15:24:38.137Z,40.71
2023-03-26T15:27:28.729Z,41.33
2023-03-26T15:30:37.949Z,41.39
2023-03-26T15:33:51.183Z,41.69
2023-03-26T15:37:06.768Z,40.85
2023-03-26T15:40:16.890Z,39.98
2023-03-26T15:42:55.939Z,39.39
2023-03-26T15:45:34.424Z,39.70
2023-03-26T15:48:41.248Z,39.20
2023-03-26T15:51:29.596Z,39.06
2023-03-26T15:54:04.779Z,38.77
2023-03-26T15:56:52.980Z,38.67
2023-03-26T15:59:37.950Z,38.75
2023-03-26T16:02:17.892Z,38.97
2023-03-26T16:04:52.326Z,39.01
2023-03-26T16:07:41.344Z,39.08
2023-03-26T16:10:21.782Z,39.65
2023-03-26T16:13:10.490Z,40.21
2023-03-26T16:15:40.300Z,40.49
2023-03-26T16:18:31.228Z,41.27
2023-03-26T16:21:47.935Z,41.34
2023-03-26T16:24:26.950Z,42.33
2023-03-26T16:27:21.197Z,42.63
2023-03-26T16:30:26.231Z,42.93
2023-03-26T16:32:58.717Z,43.20
2023-03-26T16:35:56.943Z,43.57
2023-03-26T16:38:27.319Z,43.77
2023-03-26T16:41:03.422Z,44.22
2023-03-26T16:44:05.375Z,44.65
2023-03-26T16:46:43.909Z,44.78
2023-03-26T16:49:26.002Z,45.26
2023-03-26T16:52:10.711Z,45.29
2023-03-26T16:54:49.249Z,45.48
2023-03-26T16:57:27.102Z,45.64
2023-03-26T17:00:07.377Z,45.58
2023-03-26T17:02:49.204Z,46.36
2023-03-26T17:05:25.345Z,46.66
2023-03-26T17:08:02.500Z,46.69
2023-03-26T17:10:36.857Z,46.69
2023-03-26T17:13:08.777Z,46.82
2023-03-26T17:15:45.989Z,47.21
2023-03-26T17:18:32.102Z,47.12
2023-03-26T17:21:06.547Z,47.09
2023-03-26T17:24:00.470Z,47.04
2023-03-26T17:26:42.253Z,47.17
2023-03-26T17:29:27.190Z,47.32
2023-03-26T17:32:01.462Z,47.28
2023-03-26T17:34:53.259Z,47.15
2023-03-26T17:37:43.416Z,47.47
2023-03-26T17:40:48.962Z,47.61
2023-03-26T17:43:40.270Z,47.94
2023-03-26T17:46:24.538Z,48.22
2023-03-26T17:49:00.644Z,48.40
2023-03-26T17:51:40.182Z,48.68
2023-03-26T17:54:18.106Z,48.85
2023-03-26T17:56:48.233Z,49.41
2023-03-26T17:59:23.272Z,49.88
2023-03-26T18:01:55.452Z,50.12
2023-03-26T18:04:31.159Z,50.11
2023-03-26T18:07:15.239Z,50.29
2023-03-26T18:10:00.141Z,50.55
2023-03-26T18:12:50.206Z,50.79
2023-03-26T18:15:33.128Z,50.67
2023-03-26T18:18:10.640Z,50.88
2023-03-26T18:20:42.558Z,50.58
2023-03-26T18:23:13.329Z,50.58
2023-03-26T18:25:42.725Z,50.58
2023-03-26T18:28:15.245Z,50.80
2023-03-26T18:30:48.272Z,50.70
2023-03-26T18:33:16.874Z,51.00
2023-03-26T18:35:46.713Z,51.16
2023-03-26T18:38:35.659Z,51.31
2023-03-26T18:41:08.624Z,51.50
2023-03-26T18:43:44.438Z,51.53
2023-03-26T18:46:14.213Z,52.42
2023-03-26T18:48:42.616Z,53.00
2023-03-26T18:51:11.077Z,53.27
2023-03-26T18:53:41.635Z,53.76
2023-03-26T18:56:27.690Z,55.46
2023-03-26T18:58:59.551Z,57.57
2023-03-26T19:01:31.586Z,60.83
2023-03-26T19:04:03.679Z,62.82
2023-03-26T19:06:35.936Z,66.30
2023-03-26T19:09:16.396Z,69.43
2023-03-26T19:11:57.165Z,71.59
2023-03-26T19:14:27.073Z,72.35
2023-03-26T19:16:59.107Z,73.06
2023-03-26T19:19:32.500Z,74.67
2023-03-26T19:22:01.147Z,75.03
2023-03-26T19:24:29.179Z,75.40
2023-03-26T19:26:59.046Z,74.94
2023-03-26T19:29:31.028Z,75.67
2023-03-26T19:32:03.886Z,75.64
2023-03-26T19:34:34.923Z,75.48
2023-03-26T19:37:04.916Z,75.59
2023-03-26T19:39:40.270Z,76.14
2023-03-26T19:42:15.995Z,76.74
2023-03-26T19:44:45.081Z,76.91
2023-03-26T19:47:20.059Z,75.94
2023-03-26T19:49:54.348Z,74.97
2023-03-26T19:52:24.854Z,75.73
2023-03-26T19:55:01.696Z,75.16
2023-03-26T19:57:32.856Z,75.82
2023-03-26T20:00:01.230Z,75.82
2023-03-26T20:02:29.301Z,75.94
2023-03-26T20:04:57.309Z,76.06
2023-03-26T20:10:15.766Z,76.38
2023-03-26T20:12:45.510Z,76.50
2023-03-26T20:15:19.845Z,76.77
2023-03-26T20:17:50.070Z,76.46
2023-03-26T20:20:18.349Z,77.14
2023-03-26T20:22:46.907Z,76.89
2023-03-26T20:27:55.426Z,76.62
2023-03-26T20:30:36.849Z,76.27
2023-03-26T20:33:12.128Z,75.63
2023-03-26T20:35:42.728Z,75.16
2023-03-26T20:38:10.657Z,75.49
2023-03-26T20:40:39.153Z,75.82
2023-03-26T20:43:12.369Z,75.68
2023-03-26T20:45:40.553Z,76.09
2023-03-26T20:48:10.213Z,75.96
2023-03-26T20:50:49.985Z,75.37
2023-03-26T20:53:20.371Z,75.85
2023-03-26T20:55:49.729Z,75.55
2023-03-26T20:58:31.356Z,75.48
2023-03-26T21:01:02.217Z,75.70
2023-03-26T21:03:30.503Z,76.13
2023-03-26T21:06:01.024Z,76.48
2023-03-26T21:08:35.067Z,76.34
2023-03-26T21:11:04.763Z,76.77
2023-03-26T21:13:40.100Z,77.26
2023-03-26T21:16:09.097Z,77.03
2023-03-26T21:18:37.822Z,76.96
2023-03-26T21:21:21.572Z,77.02
2023-03-26T21:24:00.205Z,76.69
2023-03-26T21:26:33.610Z,77.68
2023-03-26T21:29:11.750Z,76.42
2023-03-26T21:31:40.285Z,77.21
2023-03-26T21:34:09.623Z,76.50
2023-03-26T21:36:38.110Z,77.12
2023-03-26T21:39:06.558Z,78.23
2023-03-26T21:41:43.631Z,78.14
2023-03-26T21:44:14.254Z,77.87
2023-03-26T21:46:43.791Z,78.23
2023-03-26T21:49:13.477Z,78.54
2023-03-26T21:51:42.706Z,78.59
2023-03-26T21:54:22.668Z,79.81
2023-03-26T21:57:01.942Z,79.05
2023-03-26T21:59:39.366Z,79.94
2023-03-26T22:02:16.319Z,80.74
2023-03-26T22:04:49.809Z,80.82
2023-03-26T22:07:21.462Z,81.44
2023-03-26T22:09:50.173Z,81.03
2023-03-26T22:12:18.028Z,81.40
2023-03-26T22:14:48.385Z,81.60
2023-03-26T22:17:16.296Z,82.21
2023-03-26T22:19:44.135Z,82.06
2023-03-26T22:22:12.479Z,81.38
2023-03-26T22:24:40.394Z,81.53
2023-03-26T22:27:08.334Z,82.34
2023-03-26T22:29:36.463Z,82.00
2023-03-26T22:32:06.352Z,82.02
2023-03-26T22:34:35.128Z,81.80
2023-03-26T22:37:03.037Z,81.69
2023-03-26T22:39:31.331Z,81.94
2023-03-26T22:42:01.421Z,81.71
2023-03-26T22:44:29.322Z,80.85
2023-03-26T22:46:57.147Z,81.09
2023-03-26T22:49:27.416Z,81.34
2023-03-26T22:51:55.317Z,81.77
2023-03-26T22:54:23.163Z,81.25
2023-03-26T22:56:52.159Z,81.28
2023-03-26T22:59:20.125Z,81.18
2023-03-26T23:01:48.151Z,80.65
2023-03-26T23:04:16.161Z,81.01
2023-03-26T23:07:01.145Z,81.01
2023-03-26T23:09:29.418Z,81.08
2023-03-26T23:11:57.734Z,81.06
2023-03-26T23:14:25.820Z,81.35
2023-03-26T23:16:53.699Z,81.57
2023-03-26T23:19:21.637Z,80.66
2023-03-26T23:21:49.561Z,80.07
2023-03-26T23:24:18.990Z,80.35
2023-03-26T23:26:51.011Z,80.24
2023-03-26T23:29:19.404Z,79.18
2023-03-26T23:31:47.447Z,79.24
2023-03-26T23:34:16.816Z,79.13
2023-03-26T23:36:45.571Z,77.99
2023-03-26T23:39:13.788Z,77.83
2023-03-26T23:41:43.756Z,77.65
2023-03-26T23:44:13.682Z,77.13
2023-03-26T23:46:42.635Z,77.36
2023-03-26T23:49:10.664Z,77.95
2023-03-26T23:51:38.928Z,77.42
2023-03-26T23:54:08.598Z,77.93
2023-03-26T23:56:36.665Z,78.56
2023-03-26T23:59:06.136Z,78.88
